createdAt,value
2018-01-10T00:00:19.648Z,6.70
2018-01-10T00:02:47.297Z,6.70
2018-01-10T00:05:14.936Z,6.80
2018-01-10T00:07:42.550Z,6.70
2018-01-10T00:10:10.194Z,6.70
2018-01-10T00:12:37.810Z,6.70
2018-01-10T00:15:05.462Z,6.70
2018-01-10T00:17:33.085Z,6.70
2018-01-10T00:20:01.471Z,6.50
2018-01-10T00:22:29.922Z,6.50
2018-01-10T00:24:57.543Z,6.40
2018-01-10T00:27:25.959Z,6.40
2018-01-10T00:29:53.580Z,6.30
2018-01-10T00:32:21.203Z,6.30
2018-01-10T00:34:48.882Z,6.30
2018-01-10T00:37:16.502Z,6.30
2018-01-10T00:39:44.155Z,6.30
2018-01-10T00:42:11.767Z,6.30
2018-01-10T00:44:40.154Z,6.30
2018-01-10T00:47:07.801Z,6.20
2018-01-10T00:49:35.413Z,6.20
2018-01-10T00:52:03.820Z,6.20
2018-01-10T00:54:31.445Z,6.10
2018-01-10T00:56:59.070Z,6.20
2018-01-10T00:59:26.718Z,6.10
2018-01-10T01:01:54.336Z,6.20
2018-01-10T01:04:21.988Z,6.20
2018-01-10T01:06:50.407Z,6.20
2018-01-10T01:09:18.026Z,6.20
2018-01-10T01:11:45.671Z,6.30
2018-01-10T01:14:13.294Z,6.30
2018-01-10T01:16:41.711Z,6.30
2018-01-10T01:19:09.329Z,6.20
2018-01-10T01:21:36.952Z,6.20
2018-01-10T01:24:04.602Z,6.20
2018-01-10T01:26:32.985Z,6.00
2018-01-10T01:29:00.638Z,6.00
2018-01-10T01:31:28.265Z,6.20
2018-01-10T01:33:55.890Z,6.00
2018-01-10T01:36:23.568Z,6.10
2018-01-10T01:38:51.177Z,6.00
2018-01-10T01:41:19.608Z,5.90
2018-01-10T01:43:47.224Z,5.80
2018-01-10T01:46:14.878Z,5.90
2018-01-10T01:48:42.531Z,6.00
2018-01-10T01:51:10.157Z,6.00
2018-01-10T01:53:38.591Z,5.90
2018-01-10T01:56:06.205Z,5.90
2018-01-10T01:58:33.837Z,6.00
2018-01-10T02:01:01.529Z,6.00
2018-01-10T02:03:29.144Z,6.00
2018-01-10T02:05:57.562Z,6.00
2018-01-10T02:08:25.177Z,6.00
2018-01-10T02:10:52.794Z,5.90
2018-01-10T02:13:21.226Z,5.70
2018-01-10T02:15:48.841Z,5.60
2018-01-10T02:18:16.492Z,5.60
2018-01-10T02:20:44.106Z,5.70
2018-01-10T02:23:12.494Z,5.80
2018-01-10T02:25:40.912Z,5.80
2018-01-10T02:28:08.526Z,5.80
2018-01-10T02:30:36.185Z,5.80
2018-01-10T02:33:03.797Z,5.90
2018-01-10T02:35:31.417Z,5.90
2018-01-10T02:37:59.062Z,6.00
2018-01-10T02:40:27.444Z,6.00
2018-01-10T02:42:55.860Z,6.00
2018-01-10T02:45:23.478Z,5.90
2018-01-10T02:47:51.091Z,6.00
2018-01-10T02:50:19.511Z,6.00
2018-01-10T02:52:47.136Z,6.00
2018-01-10T02:55:14.790Z,6.10
2018-01-10T02:57:42.413Z,6.10
2018-01-10T03:00:10.033Z,6.10
2018-01-10T03:02:37.680Z,6.10
2018-01-10T03:05:05.298Z,6.10
2018-01-10T03:07:32.945Z,6.20
2018-01-10T03:10:00.628Z,6.20
2018-01-10T03:12:28.286Z,6.20
2018-01-10T03:14:55.937Z,6.20
2018-01-10T03:17:23.554Z,6.30
2018-01-10T03:19:51.210Z,6.20
2018-01-10T03:22:18.826Z,6.10
2018-01-10T03:24:46.439Z,6.20
2018-01-10T03:27:14.086Z,6.30
2018-01-10T03:29:42.497Z,6.20
2018-01-10T03:32:10.146Z,6.20
2018-01-10T03:34:37.771Z,6.10
2018-01-10T03:37:05.387Z,6.20
2018-01-10T03:39:33.034Z,6.20
2018-01-10T03:42:00.646Z,6.20
2018-01-10T03:44:29.068Z,6.20
2018-01-10T03:46:56.690Z,6.10
2018-01-10T03:49:24.313Z,6.10
2018-01-10T03:51:51.958Z,6.10
2018-01-10T03:54:19.574Z,6.10
2018-01-10T03:56:47.221Z,6.20
2018-01-10T03:59:14.854Z,6.20
2018-01-10T04:01:42.478Z,6.10
2018-01-10T04:04:10.140Z,6.10
2018-01-10T04:06:38.525Z,6.10
2018-01-10T04:09:06.954Z,6.10
2018-01-10T04:11:34.565Z,6.00
2018-01-10T04:14:02.186Z,6.00
2018-01-10T04:16:29.830Z,6.10
2018-01-10T04:18:57.448Z,6.10
2018-01-10T04:21:25.119Z,6.00
2018-01-10T04:23:52.734Z,6.00
2018-01-10T04:26:20.354Z,6.00
2018-01-10T04:28:47.999Z,6.00
2018-01-10T04:31:15.616Z,6.10
2018-01-10T04:33:43.266Z,6.10
2018-01-10T04:36:11.655Z,6.00
2018-01-10T04:38:40.039Z,5.90
2018-01-10T04:41:08.454Z,5.90
2018-01-10T04:43:36.066Z,5.80
2018-01-10T04:46:03.713Z,6.00
2018-01-10T04:48:31.325Z,6.00
2018-01-10T04:50:58.950Z,6.00
2018-01-10T04:53:26.593Z,6.00
2018-01-10T04:55:54.207Z,6.00
2018-01-10T04:58:21.854Z,6.00
2018-01-10T05:00:50.237Z,6.00
2018-01-10T05:03:20.221Z,6.00
2018-01-10T05:05:47.874Z,6.00
2018-01-10T05:08:15.500Z,6.00
2018-01-10T05:10:43.149Z,6.00
2018-01-10T05:13:10.770Z,5.80
2018-01-10T05:15:38.389Z,5.70
2018-01-10T05:18:06.049Z,5.70
2018-01-10T05:20:33.670Z,5.60
2018-01-10T05:23:01.333Z,5.40
2018-01-10T05:25:28.958Z,5.30
2018-01-10T05:27:57.347Z,5.10
2018-01-10T05:30:25.757Z,5.00
2018-01-10T05:32:53.369Z,4.90
2018-01-10T05:35:21.013Z,4.90
2018-01-10T05:37:48.888Z,4.80
2018-01-10T05:40:16.512Z,4.70
2018-01-10T05:42:44.165Z,4.60
2018-01-10T05:45:11.785Z,4.60
2018-01-10T05:47:40.193Z,4.50
2018-01-10T05:50:07.806Z,4.40
2018-01-10T05:52:35.425Z,4.50
2018-01-10T05:55:03.844Z,4.30
2018-01-10T05:57:31.473Z,4.20
2018-01-10T05:59:59.117Z,4.30
2018-01-10T06:02:26.733Z,4.20
2018-01-10T06:04:55.126Z,4.10
2018-01-10T06:07:23.533Z,4.10
2018-01-10T06:09:51.968Z,4.00
2018-01-10T06:12:19.618Z,3.90
2018-01-10T06:14:47.239Z,3.90
2018-01-10T06:17:14.874Z,3.90
2018-01-10T06:19:42.538Z,3.80
2018-01-10T06:22:10.159Z,3.80
2018-01-10T06:24:37.819Z,3.90
2018-01-10T06:27:05.433Z,3.80
2018-01-10T06:29:33.877Z,3.70
2018-01-10T06:32:01.541Z,3.70
2018-01-10T06:34:29.178Z,3.70
2018-01-10T06:36:57.621Z,3.60
2018-01-10T06:39:25.239Z,3.60
2018-01-10T06:41:53.623Z,3.70
2018-01-10T06:44:22.051Z,3.70
2018-01-10T06:46:49.661Z,3.60
2018-01-10T06:49:17.317Z,3.60
2018-01-10T06:51:44.943Z,3.60
2018-01-10T06:54:13.325Z,3.50
2018-01-10T06:56:41.742Z,3.50
2018-01-10T06:59:09.369Z,3.40
2018-01-10T07:01:37.011Z,3.40
2018-01-10T07:04:04.630Z,3.40
2018-01-10T07:06:32.255Z,3.40
2018-01-10T07:08:59.926Z,3.40
2018-01-10T07:11:27.555Z,3.40
2018-01-10T07:13:55.221Z,3.50
2018-01-10T07:16:22.841Z,3.40
2018-01-10T07:18:50.454Z,3.50
2018-01-10T07:21:18.100Z,3.80
2018-01-10T07:23:45.712Z,4.00
2018-01-10T07:26:13.357Z,3.90
2018-01-10T07:28:40.973Z,4.10
2018-01-10T07:31:08.601Z,4.00
2018-01-10T07:33:36.243Z,4.20
2018-01-10T07:36:03.868Z,4.10
2018-01-10T07:38:31.505Z,4.00
2018-01-10T07:40:59.126Z,4.20
2018-01-10T07:43:27.522Z,4.40
2018-01-10T07:45:55.942Z,4.40
2018-01-10T07:48:23.570Z,4.40
2018-01-10T07:50:51.227Z,4.50
2018-01-10T07:53:18.845Z,4.70
2018-01-10T07:55:47.240Z,4.70
2018-01-10T07:58:15.658Z,4.90
2018-01-10T08:00:43.276Z,4.80
2018-01-10T08:03:10.925Z,4.80
2018-01-10T08:05:38.585Z,5.00
2018-01-10T08:08:06.201Z,5.20
2018-01-10T08:10:33.842Z,5.20
2018-01-10T08:13:01.471Z,5.30
2018-01-10T08:15:29.891Z,5.30
2018-01-10T08:17:57.514Z,5.30
2018-01-10T08:20:25.132Z,5.50
2018-01-10T08:22:52.809Z,5.60
2018-01-10T08:25:20.433Z,5.70
2018-01-10T08:27:48.088Z,5.70
2018-01-10T08:30:15.703Z,5.70
2018-01-10T08:32:44.091Z,5.90
2018-01-10T08:35:12.509Z,6.00
2018-01-10T08:37:40.131Z,5.90
2018-01-10T08:40:07.798Z,6.00
2018-01-10T08:42:35.415Z,6.10
2018-01-10T08:45:03.798Z,6.20
2018-01-10T08:47:32.249Z,6.30
2018-01-10T08:49:59.856Z,6.20
2018-01-10T08:52:27.507Z,6.30
2018-01-10T08:54:55.129Z,6.40
2018-01-10T08:57:23.521Z,6.40
2018-01-10T08:59:51.174Z,6.30
2018-01-10T09:02:18.786Z,6.40
2018-01-10T09:04:46.434Z,6.50
2018-01-10T09:07:14.819Z,6.60
2018-01-10T09:09:43.205Z,6.70
2018-01-10T09:12:10.857Z,6.60
2018-01-10T09:14:38.472Z,6.70
2018-01-10T09:17:06.129Z,6.70
2018-01-10T09:19:34.527Z,6.60
2018-01-10T09:22:02.922Z,6.60
2018-01-10T09:24:31.337Z,6.80
2018-01-10T09:26:58.956Z,6.70
2018-01-10T09:29:26.601Z,6.80
2018-01-10T09:31:54.220Z,6.90
2018-01-10T09:34:21.826Z,6.90
2018-01-10T09:36:49.477Z,6.90
2018-01-10T09:39:17.883Z,7.00
2018-01-10T09:41:46.314Z,7.10
2018-01-10T09:44:13.933Z,7.10
2018-01-10T09:46:41.554Z,7.10
2018-01-10T09:49:09.199Z,7.20
2018-01-10T09:51:36.830Z,7.30
2018-01-10T09:54:04.525Z,7.30
2018-01-10T09:56:32.913Z,7.30
2018-01-10T09:59:00.550Z,7.20
2018-01-10T10:01:28.213Z,7.40
2018-01-10T10:03:55.840Z,7.40
2018-01-10T10:06:23.494Z,7.60
2018-01-10T10:08:51.110Z,7.70
2018-01-10T10:11:18.745Z,7.90
2018-01-10T10:13:46.425Z,8.00
2018-01-10T10:16:14.053Z,8.30
2018-01-10T10:18:41.710Z,8.50
2018-01-10T10:21:09.321Z,8.60
2018-01-10T10:23:36.941Z,8.70
2018-01-10T10:26:05.361Z,8.90
2018-01-10T10:28:33.007Z,8.90
2018-01-10T10:31:01.454Z,8.80
2018-01-10T10:33:29.080Z,8.80
2018-01-10T10:35:57.467Z,9.20
2018-01-10T10:38:25.882Z,9.40
2018-01-10T10:40:53.506Z,9.40
2018-01-10T10:43:21.161Z,9.90
2018-01-10T10:45:48.789Z,10.50
2018-01-10T10:48:17.182Z,11.40
2018-01-10T10:50:45.603Z,11.30
2018-01-10T10:53:13.233Z,11.30
2018-01-10T10:55:40.902Z,11.60
2018-01-10T10:58:08.552Z,11.20
2018-01-10T11:00:36.176Z,10.70
2018-01-10T11:03:03.839Z,11.00
2018-01-10T11:05:32.231Z,11.20
2018-01-10T11:08:01.855Z,11.00
2018-01-10T11:10:30.251Z,11.40
2018-01-10T11:12:58.660Z,11.20
2018-01-10T11:15:26.328Z,11.10
2018-01-10T11:17:53.954Z,11.10
2018-01-10T11:20:21.608Z,11.20
2018-01-10T11:22:49.236Z,11.50
2018-01-10T11:25:17.625Z,12.50
2018-01-10T11:27:48.784Z,12.80
2018-01-10T11:30:17.171Z,12.50
2018-01-10T11:32:45.606Z,12.30
2018-01-10T11:35:13.229Z,12.30
2018-01-10T11:37:41.625Z,12.30
2018-01-10T11:40:09.282Z,12.30
2018-01-10T11:42:36.908Z,12.30
2018-01-10T11:45:04.575Z,11.70
2018-01-10T11:47:32.193Z,11.30
2018-01-10T11:49:59.813Z,11.40
2018-01-10T11:52:28.237Z,11.30
2018-01-10T11:54:55.858Z,11.20
2018-01-10T11:57:23.506Z,11.30
2018-01-10T11:59:51.139Z,11.40
2018-01-10T12:02:18.762Z,11.50
2018-01-10T12:04:46.451Z,11.30
2018-01-10T12:07:14.099Z,11.40
2018-01-10T12:09:41.758Z,11.50
2018-01-10T12:12:09.393Z,11.50
2018-01-10T12:14:37.784Z,10.90
2018-01-10T12:17:06.210Z,10.70
2018-01-10T12:19:33.830Z,10.60
2018-01-10T12:22:01.483Z,10.40
2018-01-10T12:24:29.112Z,10.30
2018-01-10T12:26:57.500Z,10.20
2018-01-10T12:29:25.163Z,10.10
2018-01-10T12:31:53.541Z,10.00
2018-01-10T12:34:21.196Z,10.00
2018-01-10T12:36:48.826Z,9.90
2018-01-10T12:39:16.450Z,9.80
2018-01-10T12:41:44.106Z,9.70
2018-01-10T12:44:11.737Z,9.50
2018-01-10T12:46:39.393Z,9.40
2018-01-10T12:49:07.006Z,9.30
2018-01-10T12:51:34.639Z,9.30
2018-01-10T12:54:02.298Z,9.30
2018-01-10T12:56:29.922Z,9.30
2018-01-10T12:58:57.585Z,9.20
2018-01-10T13:01:25.214Z,9.00
2018-01-10T13:03:52.882Z,9.10
2018-01-10T13:06:20.529Z,9.00
2018-01-10T13:08:48.166Z,9.10
2018-01-10T13:11:16.599Z,9.10
2018-01-10T13:13:44.218Z,9.00
2018-01-10T13:16:11.839Z,9.10
2018-01-10T13:18:39.494Z,9.10
2018-01-10T13:21:07.890Z,9.40
2018-01-10T13:23:35.563Z,9.30
2018-01-10T13:26:03.183Z,9.60
2018-01-10T13:28:30.805Z,9.70
2018-01-10T13:30:59.222Z,9.30
2018-01-10T13:33:26.849Z,9.30
2018-01-10T13:35:54.503Z,9.50
2018-01-10T13:38:22.125Z,9.60
2018-01-10T13:40:50.509Z,9.70
2018-01-10T13:43:18.930Z,9.50
2018-01-10T13:45:46.556Z,9.40
2018-01-10T13:48:14.205Z,9.50
2018-01-10T13:50:41.822Z,9.40
2018-01-10T13:53:10.222Z,8.90
2018-01-10T13:55:37.885Z,8.90
2018-01-10T13:58:06.289Z,8.90
2018-01-10T14:00:34.717Z,8.90
2018-01-10T14:03:02.339Z,8.90
2018-01-10T14:05:29.970Z,9.00
2018-01-10T14:07:57.636Z,8.80
2018-01-10T14:10:25.259Z,8.80
2018-01-10T14:12:52.929Z,8.80
2018-01-10T14:15:20.542Z,8.90
2018-01-10T14:17:48.215Z,8.90
2018-01-10T14:20:15.875Z,8.90
2018-01-10T14:22:44.262Z,8.80
2018-01-10T14:25:12.713Z,8.70
2018-01-10T14:27:40.338Z,8.60
2018-01-10T14:30:08.724Z,8.70
2018-01-10T14:32:37.145Z,8.50
2018-01-10T14:35:04.849Z,8.50
2018-01-10T14:37:32.519Z,8.50
2018-01-10T14:40:00.142Z,8.40
2018-01-10T14:42:28.535Z,8.40
2018-01-10T14:44:56.957Z,8.40
2018-01-10T14:47:24.581Z,8.30
2018-01-10T14:49:52.256Z,8.50
2018-01-10T14:52:19.878Z,8.50
2018-01-10T14:54:47.487Z,8.40
2018-01-10T14:57:15.137Z,8.30
2018-01-10T14:59:42.797Z,8.20
2018-01-10T15:02:10.450Z,8.10
2018-01-10T15:04:38.841Z,8.00
2018-01-10T15:07:07.222Z,8.00
2018-01-10T15:09:35.643Z,8.00
2018-01-10T15:12:03.274Z,8.00
2018-01-10T15:14:30.928Z,8.00
2018-01-10T15:16:58.553Z,8.00
2018-01-10T15:19:26.942Z,7.90
2018-01-10T15:21:54.623Z,7.80
2018-01-10T15:24:22.353Z,7.70
2018-01-10T15:26:50.022Z,7.70
2018-01-10T15:29:17.645Z,7.60
2018-01-10T15:31:46.196Z,7.40
2018-01-10T15:34:14.669Z,7.40
2018-01-10T15:36:42.359Z,7.30
2018-01-10T15:39:10.002Z,7.30
2018-01-10T15:41:37.630Z,7.20
2018-01-10T15:44:05.250Z,7.10
2018-01-10T15:46:32.931Z,7.00
2018-01-10T15:49:00.821Z,6.90
2018-01-10T15:51:28.471Z,7.00
2018-01-10T15:53:56.091Z,6.90
2018-01-10T15:56:23.725Z,6.90
2018-01-10T15:58:51.396Z,6.90
2018-01-10T16:01:19.009Z,6.90
2018-01-10T16:03:46.658Z,6.80
2018-01-10T16:06:14.269Z,6.70
2018-01-10T16:08:41.886Z,6.60
2018-01-10T16:11:09.530Z,6.60
2018-01-10T16:13:37.153Z,6.60
2018-01-10T16:16:04.797Z,6.50
2018-01-10T16:18:33.190Z,6.50
2018-01-10T16:21:01.586Z,6.40
2018-01-10T16:23:30.006Z,6.50
2018-01-10T16:25:57.628Z,6.40
2018-01-10T16:28:25.287Z,6.40
2018-01-10T16:30:52.917Z,6.30
2018-01-10T16:33:20.553Z,6.30
2018-01-10T16:35:48.977Z,6.20
2018-01-10T16:38:16.602Z,6.10
2018-01-10T16:40:44.265Z,6.20
2018-01-10T16:43:11.897Z,6.20
2018-01-10T16:45:39.518Z,6.20
2018-01-10T16:48:07.172Z,6.20
2018-01-10T16:50:34.799Z,6.20
2018-01-10T16:53:03.240Z,6.10
2018-01-10T16:55:30.852Z,6.00
2018-01-10T16:57:58.493Z,6.10
2018-01-10T17:00:26.156Z,6.00
2018-01-10T17:02:53.769Z,6.00
2018-01-10T17:05:21.424Z,5.80
2018-01-10T17:07:49.348Z,5.80
2018-01-10T17:10:20.977Z,5.70
2018-01-10T17:12:48.629Z,5.70
2018-01-10T17:15:16.251Z,5.60
2018-01-10T17:17:43.896Z,5.50
2018-01-10T17:20:11.514Z,5.50
2018-01-10T17:22:39.906Z,5.40
2018-01-10T17:25:08.321Z,5.40
2018-01-10T17:27:35.933Z,5.30
2018-01-10T17:30:03.576Z,5.30
2018-01-10T17:32:31.199Z,5.20
2018-01-10T17:34:58.822Z,5.10
2018-01-10T17:37:26.465Z,5.00
2018-01-10T17:39:54.874Z,4.80
2018-01-10T17:42:22.526Z,4.70
2018-01-10T17:44:50.911Z,4.60
2018-01-10T17:47:18.533Z,4.60
2018-01-10T17:49:46.214Z,4.60
2018-01-10T17:52:13.829Z,4.60
2018-01-10T17:54:41.469Z,4.50
2018-01-10T17:57:09.081Z,4.50
2018-01-10T17:59:36.698Z,4.50
2018-01-10T18:02:04.353Z,4.40
2018-01-10T18:04:32.732Z,4.30
2018-01-10T18:07:01.145Z,4.20
2018-01-10T18:09:28.774Z,4.10
2018-01-10T18:11:56.405Z,4.10
2018-01-10T18:14:24.065Z,4.10
2018-01-10T18:16:51.705Z,4.20
2018-01-10T18:19:19.370Z,4.20
2018-01-10T18:21:46.981Z,4.10
2018-01-10T18:24:15.389Z,3.90
2018-01-10T18:26:43.051Z,3.90
2018-01-10T18:29:11.439Z,3.80
2018-01-10T18:31:39.086Z,3.70
2018-01-10T18:34:06.699Z,3.80
2018-01-10T18:36:34.309Z,3.80
2018-01-10T18:39:01.966Z,3.80
2018-01-10T18:41:29.594Z,3.70
2018-01-10T18:43:58.025Z,3.70
2018-01-10T18:46:25.650Z,3.70
2018-01-10T18:48:53.264Z,3.70
2018-01-10T18:51:20.917Z,3.60
2018-01-10T18:53:49.299Z,3.30
2018-01-10T18:56:17.711Z,3.40
2018-01-10T18:58:45.353Z,3.30
2018-01-10T19:01:12.967Z,3.30
2018-01-10T19:03:40.613Z,3.20
2018-01-10T19:06:09.001Z,3.20
2018-01-10T19:08:36.706Z,3.10
2018-01-10T19:11:04.327Z,3.20
2018-01-10T19:13:31.945Z,3.10
2018-01-10T19:15:59.594Z,3.00
2018-01-10T19:18:27.225Z,3.00
2018-01-10T19:20:54.882Z,3.00
2018-01-10T19:23:22.493Z,2.90
2018-01-10T19:25:50.122Z,2.90
2018-01-10T19:28:17.771Z,2.80
2018-01-10T19:30:45.394Z,2.70
2018-01-10T19:33:13.037Z,2.80
2018-01-10T19:35:41.428Z,2.70
2018-01-10T19:38:09.085Z,2.60
2018-01-10T19:40:36.733Z,2.60
2018-01-10T19:43:04.368Z,2.60
2018-01-10T19:45:32.025Z,2.70
2018-01-10T19:47:59.646Z,2.70
2018-01-10T19:50:27.268Z,2.70
2018-01-10T19:52:55.686Z,2.60
2018-01-10T19:55:23.311Z,2.60
2018-01-10T19:57:51.098Z,2.60
2018-01-10T20:00:18.846Z,2.60
2018-01-10T20:02:46.715Z,2.60
2018-01-10T20:05:14.369Z,2.60
2018-01-10T20:07:41.986Z,2.60
2018-01-10T20:10:09.639Z,2.50
2018-01-10T20:12:37.262Z,2.40
2018-01-10T20:15:05.652Z,2.40
2018-01-10T20:17:34.073Z,2.40
2018-01-10T20:20:01.701Z,2.30
2018-01-10T20:22:29.369Z,2.40
2018-01-10T20:24:57.024Z,2.40
2018-01-10T20:27:24.670Z,2.40
2018-01-10T20:29:52.330Z,2.30
2018-01-10T20:32:21.220Z,2.20
2018-01-10T20:34:49.634Z,2.20
2018-01-10T20:37:17.261Z,2.10
2018-01-10T20:39:45.028Z,2.20
2018-01-10T20:42:12.693Z,2.20
2018-01-10T20:44:40.308Z,2.20
2018-01-10T20:47:08.005Z,2.10
2018-01-10T20:49:36.889Z,2.00
2018-01-10T20:52:05.274Z,2.00
2018-01-10T20:57:19.754Z,1.90
2018-01-10T20:59:49.399Z,2.00
2018-01-10T21:02:17.799Z,1.80
2018-01-10T21:04:45.434Z,1.70
2018-01-10T21:07:13.096Z,1.80
2018-01-10T21:09:40.722Z,1.80
2018-01-10T21:12:10.191Z,1.80
2018-01-10T21:14:37.809Z,1.70
2018-01-10T21:17:06.202Z,1.80
2018-01-10T21:19:34.838Z,1.80
2018-01-10T21:22:02.469Z,1.70
2018-01-10T21:24:32.874Z,1.80
2018-01-10T21:27:00.501Z,1.70
2018-01-10T21:29:28.141Z,1.70
2018-01-10T21:31:55.794Z,1.70
2018-01-10T21:34:23.463Z,1.70
2018-01-10T21:36:52.139Z,1.60
2018-01-10T21:39:19.761Z,1.60
2018-01-10T21:41:47.382Z,1.50
2018-01-10T21:44:15.049Z,1.40
2018-01-10T21:46:44.710Z,1.40
2018-01-10T21:49:12.386Z,1.60
2018-01-10T21:51:40.016Z,1.60
2018-01-10T21:54:07.633Z,1.60
2018-01-10T21:56:35.277Z,1.70
2018-01-10T21:59:03.501Z,1.70
2018-01-10T22:01:31.147Z,1.70
2018-01-10T22:03:58.990Z,1.60
2018-01-10T22:06:27.394Z,1.60
2018-01-10T22:08:57.951Z,1.60
2018-01-10T22:11:25.578Z,1.50
2018-01-10T22:13:53.238Z,1.60
2018-01-10T22:16:20.849Z,1.60
2018-01-10T22:18:49.239Z,1.60
2018-01-10T22:21:17.657Z,1.60
2018-01-10T22:23:46.125Z,1.50
2018-01-10T22:26:16.003Z,1.50
2018-01-10T22:28:43.628Z,1.50
2018-01-10T22:31:12.012Z,1.50
2018-01-10T22:33:40.473Z,1.50
2018-01-10T22:36:08.323Z,1.50
2018-01-10T22:38:36.574Z,1.60
2018-01-10T22:41:04.218Z,1.60
2018-01-10T22:43:32.397Z,1.60
2018-01-10T22:46:00.072Z,1.50
2018-01-10T22:48:29.619Z,1.60
2018-01-10T22:50:57.376Z,1.60
2018-01-10T22:53:25.185Z,1.60
2018-01-10T22:55:53.025Z,1.60
2018-01-10T22:58:22.042Z,1.60
2018-01-10T23:00:49.657Z,1.70
2018-01-10T23:03:17.305Z,1.80
2018-01-10T23:05:44.918Z,1.80
2018-01-10T23:08:12.544Z,1.60
2018-01-10T23:10:42.355Z,1.60
2018-01-10T23:13:09.968Z,1.60
2018-01-10T23:15:38.481Z,1.60
2018-01-10T23:18:06.423Z,1.50
2018-01-10T23:20:34.590Z,1.60
2018-01-10T23:23:02.243Z,1.60
2018-01-10T23:25:29.866Z,1.50
2018-01-10T23:27:57.520Z,1.50
2018-01-10T23:30:25.166Z,1.50
2018-01-10T23:32:52.811Z,1.50
2018-01-10T23:35:21.225Z,1.30
2018-01-10T23:37:48.840Z,1.30
2018-01-10T23:40:16.491Z,1.30
2018-01-10T23:42:44.110Z,1.30
2018-01-10T23:45:12.513Z,1.40
2018-01-10T23:47:40.948Z,1.30
2018-01-10T23:50:08.573Z,1.30
2018-01-10T23:52:36.988Z,1.30
2018-01-10T23:55:04.624Z,1.30
2018-01-10T23:57:32.262Z,1.30
2018-01-10T23:59:59.910Z,1.30
